createdAt,value
2018-06-11T00:09:56.332Z,2.37
2018-06-11T00:21:12.140Z,2.60
2018-06-11T00:40:55.096Z,2.27
2018-06-11T00:43:37.008Z,2.43
2018-06-11T00:46:32.715Z,2.73
2018-06-11T00:54:54.865Z,2.90
2018-06-11T01:08:05.570Z,2.63
2018-06-11T01:34:39.126Z,2.80
2018-06-11T01:59:22.450Z,3.27
2018-06-11T02:53:24.370Z,2.73
2018-06-11T03:03:41.340Z,2.90
2018-06-11T03:06:10.504Z,2.83
2018-06-11T03:08:49.570Z,2.80
2018-06-11T03:12:26.102Z,3.10
2018-06-11T03:43:09.228Z,3.43
2018-06-11T03:45:40.272Z,3.27
2018-06-11T03:48:34.239Z,3.80
2018-06-11T03:53:54.030Z,4.27
2018-06-11T03:56:34.080Z,4.20
2018-06-11T03:59:03.178Z,4.50
2018-06-11T04:01:32.894Z,4.37
2018-06-11T04:04:01.692Z,4.60
2018-06-11T04:06:30.120Z,3.37
2018-06-11T04:08:59.664Z,4.07
2018-06-11T04:11:27.853Z,2.40
2018-06-11T04:13:56.660Z,1.40
2018-06-11T04:16:25.296Z,2.00
2018-06-11T04:18:53.905Z,2.90
2018-06-11T04:21:23.336Z,1.87
2018-06-11T04:23:52.541Z,2.57
2018-06-11T04:26:21.947Z,2.13
2018-06-11T04:28:53.483Z,2.23
2018-06-11T04:31:26.021Z,1.90
2018-06-11T04:34:06.437Z,0.40
2018-06-11T04:36:39.210Z,3.27
2018-06-11T04:39:08.817Z,3.27
2018-06-11T04:41:38.291Z,3.50
2018-06-11T04:44:08.315Z,2.50
2018-06-11T04:46:37.666Z,1.23
2018-06-11T04:49:06.767Z,2.40
2018-06-11T05:06:51.600Z,1.73
2018-06-11T05:09:31.283Z,1.87
2018-06-11T05:12:00.849Z,1.70
2018-06-11T05:14:33.271Z,2.20
2018-06-11T05:17:03.393Z,1.83
2018-06-11T05:19:33.295Z,1.63
2018-06-11T05:22:03.295Z,0.50
2018-06-11T05:24:32.684Z,1.57
2018-06-11T05:27:02.375Z,1.30
2018-06-11T05:29:30.518Z,0.67
2018-06-11T05:31:58.697Z,3.33
2018-06-11T05:34:26.899Z,1.60
2018-06-11T05:36:55.663Z,2.17
2018-06-11T05:39:24.090Z,1.33
2018-06-11T05:41:52.780Z,1.90
2018-06-11T05:44:21.046Z,1.97
2018-06-11T05:46:49.346Z,1.40
2018-06-11T05:49:17.705Z,2.60
2018-06-11T05:51:46.678Z,2.60
2018-06-11T05:54:15.445Z,3.03
2018-06-11T05:56:44.272Z,1.27
2018-06-11T05:59:14.609Z,3.40
2018-06-11T06:01:43.632Z,2.50
2018-06-11T06:04:12.424Z,3.40
2018-06-11T06:06:41.644Z,3.20
2018-06-11T06:09:10.711Z,3.33
2018-06-11T06:11:39.643Z,3.30
2018-06-11T06:14:08.694Z,3.53
2018-06-11T06:16:38.225Z,3.53
2018-06-11T06:19:06.659Z,3.87
2018-06-11T06:21:34.763Z,4.37
2018-06-11T06:24:03.191Z,4.77
2018-06-11T06:26:31.321Z,4.63
2018-06-11T06:28:59.506Z,4.70
2018-06-11T06:31:28.070Z,4.33
2018-06-11T06:33:56.422Z,4.97
2018-06-11T06:36:25.310Z,4.30
2018-06-11T06:38:53.804Z,4.20
2018-06-11T06:41:22.653Z,4.23
2018-06-11T06:43:51.481Z,3.70
2018-06-11T06:46:19.779Z,3.40
2018-06-11T06:48:48.323Z,5.10
2018-06-11T06:51:17.407Z,5.67
2018-06-11T06:53:49.280Z,5.90
2018-06-11T06:56:18.279Z,5.80
2018-06-11T06:58:48.295Z,5.47
2018-06-11T07:01:17.191Z,6.37
2018-06-11T07:03:47.468Z,5.63
2018-06-11T07:06:19.996Z,6.20
2018-06-11T07:08:55.031Z,6.40
2018-06-11T07:16:34.608Z,6.50
2018-06-11T07:19:06.169Z,6.23
2018-06-11T07:21:35.574Z,6.43
2018-06-11T07:24:04.673Z,6.30
2018-06-11T07:26:37.763Z,7.20
2018-06-11T07:31:49.981Z,7.03
2018-06-11T07:34:32.078Z,6.70
2018-06-11T07:37:05.470Z,6.70
2018-06-11T07:39:34.780Z,6.87
2018-06-11T07:42:03.674Z,7.17
2018-06-11T07:44:33.083Z,6.73
2018-06-11T07:47:02.086Z,6.17
2018-06-11T07:49:34.174Z,7.03
2018-06-11T07:59:50.818Z,6.57
2018-06-11T08:02:23.182Z,6.77
2018-06-11T08:04:54.944Z,6.37
2018-06-11T08:07:25.175Z,7.00
2018-06-11T08:09:54.845Z,7.23
2018-06-11T08:16:42.738Z,7.17
2018-06-11T08:27:51.345Z,6.40
2018-06-11T08:30:20.756Z,7.00
2018-06-11T08:32:50.394Z,6.60
2018-06-11T08:35:22.106Z,6.03
2018-06-11T08:37:54.822Z,6.37
2018-06-11T08:51:32.021Z,4.47
2018-06-11T08:54:01.035Z,4.40
2018-06-11T08:56:30.733Z,4.33
2018-06-11T08:59:01.054Z,4.20
2018-06-11T09:01:30.159Z,4.43
2018-06-11T09:03:59.342Z,4.60
2018-06-11T09:06:29.854Z,5.87
2018-06-11T09:08:58.580Z,4.73
2018-06-11T09:11:27.886Z,4.50
2018-06-11T09:13:57.919Z,5.07
2018-06-11T09:16:27.008Z,4.83
2018-06-11T09:20:36.021Z,4.87
2018-06-11T09:23:12.147Z,5.00
2018-06-11T09:25:41.435Z,5.97
2018-06-11T09:28:10.804Z,5.33
2018-06-11T09:30:45.383Z,5.33
2018-06-11T09:33:14.985Z,5.40
2018-06-11T09:35:45.819Z,5.50
2018-06-11T09:38:16.273Z,4.93
2018-06-11T09:40:45.568Z,5.50
2018-06-11T09:43:14.281Z,5.07
2018-06-11T09:50:36.333Z,5.47
2018-06-11T09:53:13.647Z,5.40
2018-06-11T09:55:42.568Z,5.40
2018-06-11T09:58:12.128Z,5.90
2018-06-11T10:00:41.694Z,5.87
2018-06-11T10:03:11.667Z,5.50
2018-06-11T10:05:40.553Z,5.13
2018-06-11T10:08:11.799Z,5.23
2018-06-11T10:10:42.946Z,5.30
2018-06-11T10:13:23.873Z,5.57
2018-06-11T10:15:54.040Z,6.00
2018-06-11T10:18:23.244Z,5.73
2018-06-11T10:20:52.445Z,5.43
2018-06-11T10:23:24.051Z,5.43
2018-06-11T10:25:55.042Z,5.57
2018-06-11T10:31:16.881Z,5.97
2018-06-11T10:33:46.525Z,5.30
2018-06-11T10:36:16.922Z,5.37
2018-06-11T10:38:46.841Z,5.93
2018-06-11T10:41:16.965Z,5.73
2018-06-11T10:43:46.374Z,6.10
2018-06-11T10:46:15.369Z,6.03
2018-06-11T10:48:45.503Z,5.43
2018-06-11T10:51:17.561Z,6.00
2018-06-11T10:53:47.580Z,6.20
2018-06-11T10:56:18.013Z,6.77
2018-06-11T10:58:46.540Z,6.23
2018-06-11T11:01:16.517Z,5.70
2018-06-11T11:03:45.208Z,5.70
2018-06-11T11:06:14.032Z,6.23
2018-06-11T11:08:43.049Z,6.67
2018-06-11T11:11:12.557Z,7.57
2018-06-11T11:13:41.438Z,6.97
2018-06-11T11:16:10.598Z,7.50
2018-06-11T11:18:40.771Z,6.93
2018-06-11T11:21:10.532Z,5.97
2018-06-11T11:23:38.828Z,5.37
2018-06-11T11:26:07.148Z,5.73
2018-06-11T11:28:35.376Z,2.90
2018-06-11T11:31:04.796Z,3.83
2018-06-11T11:33:34.123Z,3.63
2018-06-11T11:36:02.901Z,4.57
2018-06-11T11:38:31.076Z,2.17
2018-06-11T11:40:59.393Z,3.00
2018-06-11T11:43:28.120Z,4.90
2018-06-11T11:45:56.926Z,3.63
2018-06-11T11:48:25.810Z,1.30
2018-06-11T11:50:54.684Z,3.10
2018-06-11T11:53:22.940Z,5.03
2018-06-11T11:55:51.190Z,1.90
2018-06-11T11:58:20.112Z,3.27
2018-06-11T12:00:48.481Z,4.00
2018-06-11T12:03:16.945Z,2.93
2018-06-11T12:05:45.440Z,3.30
2018-06-11T12:08:14.470Z,2.10
2018-06-11T12:10:42.822Z,1.57
2018-06-11T12:13:11.337Z,4.37
2018-06-11T12:15:39.685Z,2.00
2018-06-11T12:18:08.485Z,3.50
2018-06-11T12:20:36.901Z,0.77
2018-06-11T12:23:05.657Z,2.83
2018-06-11T12:25:33.918Z,1.90
2018-06-11T12:28:03.722Z,2.87
2018-06-11T12:30:32.462Z,1.90
2018-06-11T12:33:01.104Z,5.00
2018-06-11T12:35:29.305Z,1.60
2018-06-11T12:37:57.596Z,2.27
2018-06-11T12:40:26.083Z,1.90
2018-06-11T12:42:55.061Z,2.80
2018-06-11T12:45:24.015Z,2.97
2018-06-11T12:47:52.983Z,2.60
2018-06-11T12:50:21.385Z,3.20
2018-06-11T12:52:49.895Z,2.40
2018-06-11T12:55:21.135Z,2.10
2018-06-11T12:57:49.774Z,2.67
2018-06-11T13:00:18.361Z,2.20
2018-06-11T13:02:47.534Z,2.00
2018-06-11T13:05:19.732Z,1.60
2018-06-11T13:07:48.731Z,2.10
2018-06-11T13:10:22.050Z,1.57
2018-06-11T13:12:50.613Z,2.73
2018-06-11T13:15:23.094Z,1.63
2018-06-11T13:17:51.586Z,1.00
2018-06-11T13:20:20.217Z,2.67
2018-06-11T13:22:48.855Z,3.07
2018-06-11T13:25:21.048Z,2.73
2018-06-11T13:27:49.392Z,1.90
2018-06-11T13:30:17.928Z,1.93
2018-06-11T13:32:47.096Z,1.23
2018-06-11T13:35:16.691Z,3.20
2018-06-11T13:37:45.498Z,1.20
2018-06-11T13:43:05.905Z,2.60
2018-06-11T13:45:35.779Z,0.77
2018-06-11T13:48:07.100Z,2.63
2018-06-11T13:50:36.022Z,2.50
2018-06-11T13:53:04.861Z,3.23
2018-06-11T13:55:33.858Z,2.10
2018-06-11T13:58:02.602Z,2.37
2018-06-11T14:00:31.443Z,2.10
2018-06-11T14:03:00.850Z,1.47
2018-06-11T14:05:30.565Z,2.10
2018-06-11T14:07:59.144Z,3.20
2018-06-11T14:10:27.336Z,3.47
2018-06-11T14:12:55.498Z,3.50
2018-06-11T14:15:23.669Z,2.90
2018-06-11T14:17:53.218Z,2.13
2018-06-11T14:20:21.400Z,3.00
2018-06-11T14:22:50.308Z,3.37
2018-06-11T14:25:18.546Z,1.67
2018-06-11T14:27:47.443Z,2.60
2018-06-11T14:30:15.878Z,2.23
2018-06-11T14:32:44.623Z,1.67
2018-06-11T14:35:13.575Z,1.27
2018-06-11T14:37:42.404Z,2.80
2018-06-11T14:40:10.735Z,1.63
2018-06-11T14:42:39.015Z,1.57
2018-06-11T14:45:07.924Z,2.40
2018-06-11T14:47:36.152Z,1.57
2018-06-11T14:50:05.204Z,2.13
2018-06-11T14:52:33.522Z,1.87
2018-06-11T14:55:02.441Z,2.37
2018-06-11T14:57:31.604Z,2.30
2018-06-11T14:59:59.864Z,2.03
2018-06-11T15:02:28.081Z,3.17
2018-06-11T15:04:57.146Z,2.00
2018-06-11T15:07:25.753Z,1.90
2018-06-11T15:09:54.112Z,1.57
2018-06-11T15:12:22.489Z,1.83
2018-06-11T15:14:50.728Z,2.43
2018-06-11T15:17:19.595Z,1.87
2018-06-11T15:19:48.594Z,1.33
2018-06-11T15:22:17.010Z,1.63
2018-06-11T15:24:46.213Z,2.73
2018-06-11T15:27:14.419Z,3.00
2018-06-11T15:29:43.473Z,1.13
2018-06-11T15:32:12.741Z,2.27
2018-06-11T15:34:40.984Z,2.23
2018-06-11T15:37:09.809Z,2.50
2018-06-11T15:39:39.523Z,3.13
2018-06-11T15:42:09.146Z,2.93
2018-06-11T15:44:38.749Z,2.70
2018-06-11T15:47:06.975Z,2.57
2018-06-11T15:49:36.060Z,2.40
2018-06-11T15:52:04.410Z,2.60
2018-06-11T15:54:34.033Z,2.33
2018-06-11T15:57:02.787Z,2.70
2018-06-11T15:59:31.092Z,2.40
2018-06-11T16:01:59.243Z,2.70
2018-06-11T16:04:27.376Z,2.03
2018-06-11T16:06:55.534Z,1.37
2018-06-11T16:09:23.821Z,2.20
2018-06-11T16:11:51.970Z,2.80
2018-06-11T16:14:20.117Z,2.37
2018-06-11T16:16:48.304Z,2.50
2018-06-11T16:19:16.448Z,2.10
2018-06-11T16:21:45.474Z,10.87
2018-06-11T16:24:13.696Z,2.00
2018-06-11T16:26:41.971Z,1.90
2018-06-11T16:29:10.105Z,2.10
2018-06-11T16:31:38.312Z,2.00
2018-06-11T16:34:07.797Z,2.40
2018-06-11T16:36:36.076Z,2.03
2018-06-11T16:39:06.624Z,2.13
2018-06-11T16:41:35.511Z,2.20
2018-06-11T16:44:03.682Z,1.93
2018-06-11T16:46:32.560Z,2.30
2018-06-11T16:49:00.807Z,2.07
2018-06-11T16:51:28.922Z,2.13
2018-06-11T16:53:57.444Z,1.97
2018-06-11T16:56:25.805Z,2.33
2018-06-11T16:58:54.090Z,2.33
2018-06-11T17:01:22.596Z,2.17
2018-06-11T17:03:51.750Z,2.10
2018-06-11T17:06:20.304Z,1.80
2018-06-11T17:08:48.772Z,1.77
2018-06-11T17:11:17.230Z,2.40
2018-06-11T17:13:45.553Z,1.73
2018-06-11T17:16:13.766Z,1.90
2018-06-11T17:18:42.108Z,1.93
2018-06-11T17:21:11.124Z,1.80
2018-06-11T17:23:39.826Z,1.70
2018-06-11T17:26:08.683Z,1.60
2018-06-11T17:28:38.152Z,1.47
2018-06-11T17:31:06.600Z,1.90
2018-06-11T17:33:36.534Z,1.80
2018-06-11T17:36:04.881Z,1.50
2018-06-11T17:38:34.066Z,1.63
2018-06-11T17:41:02.327Z,1.90
2018-06-11T17:43:30.513Z,1.70
2018-06-11T17:45:58.784Z,1.90
2018-06-11T17:48:27.492Z,1.70
2018-06-11T17:50:56.858Z,1.67
2018-06-11T17:53:25.168Z,1.70
2018-06-11T17:55:53.594Z,1.73
2018-06-11T17:58:23.241Z,1.70
2018-06-11T18:00:51.549Z,1.60
2018-06-11T18:03:19.969Z,1.80
2018-06-11T18:05:48.829Z,1.70
2018-06-11T18:08:16.997Z,2.00
2018-06-11T18:10:46.417Z,1.93
2018-06-11T18:13:15.515Z,1.73
2018-06-11T18:15:44.713Z,1.70
2018-06-11T18:18:13.100Z,1.83
2018-06-11T18:20:41.899Z,1.90
2018-06-11T18:23:10.272Z,1.87
2018-06-11T18:25:39.002Z,2.10
2018-06-11T18:28:09.153Z,1.73
2018-06-11T18:30:37.509Z,1.87
2018-06-11T18:33:08.268Z,2.00
2018-06-11T18:35:38.018Z,2.07
2018-06-11T18:38:06.861Z,2.07
2018-06-11T18:40:36.010Z,2.27
2018-06-11T18:43:11.224Z,2.17
2018-06-11T18:45:42.502Z,2.40
2018-06-11T18:48:20.911Z,2.27
2018-06-11T18:51:01.577Z,2.30
2018-06-11T18:53:33.744Z,2.57
2018-06-11T18:59:26.205Z,2.60
2018-06-11T19:02:00.500Z,2.63
2018-06-11T19:04:30.521Z,2.17
2018-06-11T19:06:58.801Z,1.93
2018-06-11T19:09:27.699Z,2.20
2018-06-11T19:11:56.948Z,2.60
2018-06-11T19:14:25.806Z,2.60
2018-06-11T19:16:54.729Z,1.97
2018-06-11T19:19:23.180Z,3.17
2018-06-11T19:21:51.530Z,2.00
2018-06-11T19:24:25.555Z,2.43
2018-06-11T19:27:02.858Z,2.00
2018-06-11T19:29:31.448Z,2.20
2018-06-11T19:32:00.048Z,2.03
2018-06-11T19:34:29.033Z,1.73
2018-06-11T19:36:57.774Z,1.90
2018-06-11T19:39:26.363Z,2.03
2018-06-11T19:41:56.519Z,1.70
2018-06-11T19:44:25.641Z,1.50
2018-06-11T19:46:54.552Z,1.47
2018-06-11T19:49:23.351Z,1.93
2018-06-11T19:51:52.251Z,1.63
2018-06-11T19:54:21.885Z,2.13
2018-06-11T19:56:53.794Z,1.80
2018-06-11T19:59:22.853Z,1.63
2018-06-11T20:07:22.540Z,1.90
2018-06-11T20:13:02.991Z,2.20
2018-06-11T20:15:32.423Z,2.53
2018-06-11T20:18:02.366Z,1.97
2018-06-11T20:20:31.491Z,1.90
2018-06-11T20:23:26.918Z,2.00
2018-06-11T20:31:51.320Z,2.30
2018-06-11T20:34:22.552Z,2.90
2018-06-11T20:37:11.009Z,3.00
2018-06-11T20:39:41.236Z,2.93
2018-06-11T20:44:45.391Z,2.23
2018-06-11T20:47:15.200Z,2.00
2018-06-11T20:49:56.872Z,2.60
2018-06-11T20:52:34.101Z,2.60
2018-06-11T21:13:44.467Z,2.00
2018-06-11T21:16:19.252Z,2.30
2018-06-11T21:18:53.885Z,2.10
2018-06-11T21:21:29.115Z,2.03
2018-06-11T21:23:58.731Z,1.90
2018-06-11T21:26:29.022Z,2.23
2018-06-11T21:51:38.167Z,2.10
2018-06-11T22:00:17.456Z,2.00
2018-06-11T22:20:06.671Z,1.70
2018-06-11T22:22:35.405Z,1.93
2018-06-11T22:25:04.522Z,1.37
2018-06-11T22:27:33.180Z,1.73
2018-06-11T22:30:01.491Z,1.30
2018-06-11T22:32:29.874Z,1.50
2018-06-11T22:34:59.177Z,1.63
2018-06-11T22:37:27.590Z,1.37
2018-06-11T22:39:56.660Z,1.37
2018-06-11T22:42:24.820Z,1.33
2018-06-11T22:44:53.013Z,1.60
2018-06-11T22:47:21.842Z,1.57
2018-06-11T22:49:50.104Z,1.90
2018-06-11T22:52:18.351Z,1.67
2018-06-11T22:54:47.814Z,1.50
2018-06-11T22:57:16.440Z,1.80
2018-06-11T22:59:44.619Z,1.80
2018-06-11T23:02:13.917Z,1.40
2018-06-11T23:04:43.391Z,1.30
2018-06-11T23:07:12.233Z,1.90
2018-06-11T23:09:40.416Z,1.80
2018-06-11T23:12:08.640Z,2.17
2018-06-11T23:14:36.820Z,1.87
2018-06-11T23:17:05.594Z,2.00
2018-06-11T23:19:33.856Z,2.20
2018-06-11T23:22:02.739Z,2.20
2018-06-11T23:24:30.938Z,1.97
2018-06-11T23:26:59.104Z,2.20
2018-06-11T23:29:28.628Z,2.27
2018-06-11T23:31:57.522Z,2.27
2018-06-11T23:34:25.689Z,1.90
2018-06-11T23:36:54.989Z,2.27
2018-06-11T23:39:23.714Z,2.27
2018-06-11T23:41:52.681Z,2.03
2018-06-11T23:44:21.217Z,2.10
2018-06-11T23:46:50.714Z,1.97
2018-06-11T23:49:20.515Z,2.37
2018-06-11T23:51:49.145Z,2.10
2018-06-11T23:54:17.378Z,2.30
2018-06-11T23:56:45.536Z,1.87
2018-06-11T23:59:14.717Z,2.10
